KPHF/PHF METAR and TAF weather

Enter ICAO airport designator
Station Type Date Time Source
KPHF METAR 2021/08/04 20:03 UTC NOAA

KPHF 042003Z 36008KT 2 1/2SM -RA BR BKN005 BKN016 OVC022 21/20 A3004 RMK AO2 VIS 1 1/4V4 P0000 T02060200


Station Type Date Time Source
KPHF Decoded METAR 2021/08/04 20:03 UTC NOAA

WILLIAMSBURG INTERNATIONAL AIRPORT , VA, United States (KPHF) 37-08N 76-30W 12M
Aug 04, 2021 - 04:03 PM EDT / 2021.08.04 2003 UTC
Wind: from the N (360 degrees) at 9 MPH (8 KT):0
Visibility: 2 1/2 mile(s):0
Sky conditions: overcast
Weather: light rain; mist
Precipitation last hour: A trace
Temperature: 69.1 F (20.6 C)
Dew Point: 68.0 F (20.0 C)
Relative Humidity: 96%
Pressure (altimeter): 30.04 in. Hg (1017 hPa)
ob: KPHF 042003Z 36008KT 2 1/2SM -RA BR BKN005 BKN016 OVC022 21/20 A3004 RMK AO2 VIS 1 1/4V4 P0000 T02060200
cycle: 20

Station Type Date Time Source
KPHF TAF 2021/08/04 20:04 UTC NOAA

TAF KPHF 042002Z 0420/0518 02010KT 6SM -RA OVC016
TEMPO 0420/0422 2SM -RA BR BKN009
FM042200 03013G20KT P6SM BKN015
FM050600 01006KT P6SM BKN020
FM051200 34005KT P6SM SCT025
FM051600 01006KT P6SM SCT040

Example: see airport list